Time;durP1;ratioP1;P1;durP2;ratioP2;P2;SDS_P1;SDS_P2;PMS_P1;PMS_P2;Temp;Humidity;BMP_temperature;BMP_pressure;BME280_temperature;BME280_humidity;BME280_pressure;Samples;Min_cycle;Max_cycle;Signal;HPM_P1;HPM_P2
2021/07/29 00:00:38;;;;;;;2.08;1.88;;;18.70;99.90;;;;;;4829014;29;20415;-80
2021/07/29 00:03:04;;;;;;;2.50;2.30;;;18.80;99.90;;;;;;4808346;29;20614;-80
2021/07/29 00:05:40;;;;;;;2.25;1.98;;;18.70;99.90;;;;;;4847980;29;20431;-80
2021/07/29 00:08:08;;;;;;;2.08;1.92;;;18.90;99.90;;;;;;4839762;29;20421;-80
2021/07/29 00:10:36;;;;;;;2.00;1.90;;;18.80;99.90;;;;;;4843705;29;20420;-80
2021/07/29 00:13:09;;;;;;;2.22;2.00;;;19.00;99.90;;;;;;4817080;29;20470;-80
2021/07/29 00:15:43;;;;;;;2.30;2.10;;;18.80;99.90;;;;;;4844929;29;20449;-81
2021/07/29 00:20:39;;;;;;;1.90;1.80;;;18.80;99.90;;;;;;4843026;29;20437;-80
2021/07/29 00:23:05;;;;;;;2.20;2.03;;;18.80;99.90;;;;;;4827931;29;20426;-80
2021/07/29 00:25:31;;;;;;;1.83;1.73;;;18.80;99.90;;;;;;4805477;29;20452;-80
2021/07/29 00:27:56;;;;;;;1.80;1.70;;;18.80;99.90;;;;;;4811457;29;20412;-81
2021/07/29 00:30:23;;;;;;;3.40;1.73;;;19.00;99.90;;;;;;4799426;29;20424;-80
2021/07/29 00:32:51;;;;;;;1.90;1.80;;;18.90;99.90;;;;;;4827988;29;20420;-81
2021/07/29 00:35:17;;;;;;;2.20;2.00;;;18.90;99.90;;;;;;4812494;29;20412;-80
2021/07/29 00:37:46;;;;;;;2.55;2.25;;;18.80;99.90;;;;;;4827924;29;20940;-81
2021/07/29 00:40:13;;;;;;;2.00;1.80;;;18.80;99.90;;;;;;4828037;29;20420;-80
2021/07/29 00:42:39;;;;;;;1.70;1.60;;;18.80;99.90;;;;;;4816332;29;20400;-81
2021/07/29 00:45:05;;;;;;;2.17;2.00;;;18.80;99.90;;;;;;4833528;29;20451;-81
2021/07/29 00:47:31;;;;;;;1.90;1.80;;;18.80;99.90;;;;;;4816582;29;20408;-80
2021/07/29 00:49:57;;;;;;;1.90;1.80;;;18.80;99.90;;;;;;4812467;29;20477;-80
2021/07/29 00:52:23;;;;;;;2.20;2.00;;;18.70;99.90;;;;;;4822260;29;20418;-80
2021/07/29 00:54:50;;;;;;;1.95;1.85;;;18.70;99.90;;;;;;4815059;29;20405;-80
2021/07/29 00:57:16;;;;;;;2.25;2.00;;;18.70;99.90;;;;;;4810900;29;20476;-80
2021/07/29 00:59:42;;;;;;;2.05;1.90;;;18.70;99.90;;;;;;4806687;29;20434;-80
2021/07/29 01:02:09;;;;;;;2.20;2.00;;;18.70;99.90;;;;;;4828801;29;20479;-81
2021/07/29 01:04:36;;;;;;;2.00;1.80;;;18.70;99.90;;;;;;4828767;29;21029;-83
2021/07/29 01:07:03;;;;;;;2.78;2.08;;;18.70;99.90;;;;;;4827683;29;20498;-80
2021/07/29 01:09:29;;;;;;;2.30;2.10;;;18.70;99.90;;;;;;4825911;29;20408;-80
2021/07/29 01:11:55;;;;;;;1.98;1.88;;;18.60;99.90;;;;;;4824598;29;20428;-80
2021/07/29 01:14:22;;;;;;;2.57;2.20;;;18.60;99.90;;;;;;4826662;29;20411;-80
2021/07/29 01:16:48;;;;;;;2.00;1.90;;;18.60;99.90;;;;;;4822855;29;20802;-80
2021/07/29 01:19:14;;;;;;;1.90;1.80;;;18.50;99.90;;;;;;4824796;29;20408;-80
2021/07/29 01:21:40;;;;;;;2.50;2.30;;;18.50;99.90;;;;;;4813627;29;20420;-79
2021/07/29 01:24:06;;;;;;;2.08;1.98;;;18.40;99.90;;;;;;4805687;29;20437;-80
2021/07/29 01:26:33;;;;;;;2.60;2.17;;;18.50;99.90;;;;;;4797892;29;20947;-79
2021/07/29 01:28:59;;;;;;;2.35;2.15;;;18.30;99.90;;;;;;4814130;29;20452;-79
2021/07/29 01:31:28;;;;;;;1.88;1.65;;;18.30;99.90;;;;;;4808443;29;20429;-79
2021/07/29 01:33:55;;;;;;;2.38;2.17;;;18.40;99.90;;;;;;4810988;29;21036;-80
2021/07/29 01:36:21;;;;;;;2.00;1.90;;;18.40;99.90;;;;;;4821422;29;20932;-80
2021/07/29 01:38:47;;;;;;;2.28;2.10;;;18.50;99.90;;;;;;4808395;29;20936;-79
2021/07/29 01:41:12;;;;;;;2.17;1.98;;;18.30;99.90;;;;;;4823392;29;20415;-79
2021/07/29 01:43:38;;;;;;;2.03;1.93;;;18.30;99.90;;;;;;4823856;29;20434;-80
2021/07/29 01:46:04;;;;;;;2.10;1.90;;;18.30;99.90;;;;;;4822821;29;20443;-80
2021/07/29 01:48:31;;;;;;;2.42;2.22;;;18.30;99.90;;;;;;4809994;29;20420;-81
2021/07/29 01:50:57;;;;;;;2.40;2.10;;;18.30;99.90;;;;;;4810299;29;20431;-80
2021/07/29 01:53:23;;;;;;;3.50;2.15;;;18.30;99.90;;;;;;4809800;29;20424;-82
2021/07/29 01:55:50;;;;;;;2.50;2.30;;;18.30;99.90;;;;;;4818078;29;20392;-82
2021/07/29 01:58:16;;;;;;;2.33;2.13;;;18.30;99.90;;;;;;4816547;29;20424;-80
2021/07/29 02:00:47;;;;;;;2.50;2.25;;;18.20;99.90;;;;;;4813263;29;20435;-81
2021/07/29 02:03:13;;;;;;;1.80;1.70;;;18.20;99.90;;;;;;4812649;29;20915;-80
2021/07/29 02:05:39;;;;;;;1.80;1.70;;;18.20;99.90;;;;;;4812000;29;20436;-81
2021/07/29 02:08:05;;;;;;;2.00;1.90;;;18.10;99.90;;;;;;4795688;29;20424;-81
2021/07/29 02:10:31;;;;;;;2.20;1.95;;;18.10;99.90;;;;;;4826467;29;20461;-79
2021/07/29 02:12:57;;;;;;;2.30;2.10;;;18.10;99.90;;;;;;4825247;29;20430;-80
2021/07/29 02:15:27;;;;;;;2.10;2.00;;;18.10;99.90;;;;;;4803491;29;20484;-80
2021/07/29 02:18:02;;;;;;;2.67;2.10;;;18.20;99.90;;;;;;4848519;29;20533;-80
2021/07/29 02:20:29;;;;;;;2.13;1.92;;;18.10;99.90;;;;;;4835228;29;20409;-79
2021/07/29 02:22:56;;;;;;;2.28;2.08;;;18.00;99.90;;;;;;4815723;29;20416;-79
2021/07/29 02:25:25;;;;;;;2.33;2.13;;;18.10;99.90;;;;;;4838635;29;20438;-82
2021/07/29 02:27:55;;;;;;;2.10;2.00;;;18.00;99.90;;;;;;4846667;29;20427;-79
2021/07/29 02:30:23;;;;;;;1.95;1.85;;;18.00;99.90;;;;;;4807779;29;20412;-81
2021/07/29 02:32:59;;;;;;;2.35;2.15;;;18.00;99.90;;;;;;4831813;29;20467;-79
2021/07/29 02:35:27;;;;;;;2.08;1.98;;;17.90;99.90;;;;;;4821323;29;20424;-81
2021/07/29 02:37:58;;;;;;;1.67;1.58;;;18.00;99.90;;;;;;4823538;29;20437;-81
2021/07/29 02:40:38;;;;;;;2.00;1.90;;;17.70;99.90;;;;;;4831521;29;20437;-80
2021/07/29 02:43:17;;;;;;;2.10;2.00;;;17.90;99.90;;;;;;4769619;29;20448;-81
2021/07/29 02:45:45;;;;;;;1.70;1.60;;;17.80;99.90;;;;;;4826418;29;20426;-79
2021/07/29 02:48:12;;;;;;;2.00;1.88;;;17.80;99.90;;;;;;4812866;29;20828;-80
2021/07/29 02:50:52;;;;;;;1.85;1.67;;;17.80;99.90;;;;;;4806544;29;20497;-79
2021/07/29 02:53:25;;;;;;;1.75;1.65;;;17.80;99.90;;;;;;4821452;29;20502;-81
2021/07/29 02:55:57;;;;;;;2.13;2.00;;;17.80;99.90;;;;;;4822898;29;20416;-82
2021/07/29 02:58:24;;;;;;;3.35;2.10;;;17.90;99.90;;;;;;4833004;29;20435;-81
2021/07/29 03:00:52;;;;;;;1.88;1.77;;;17.70;99.90;;;;;;4822615;29;20416;-83
2021/07/29 03:03:23;;;;;;;2.50;2.30;;;17.80;99.90;;;;;;4821451;29;20943;-80
2021/07/29 03:05:54;;;;;;;2.10;2.00;;;17.70;99.90;;;;;;4820118;29;20433;-81
2021/07/29 03:08:27;;;;;;;4.10;2.05;;;17.60;99.90;;;;;;4827187;29;20419;-80
2021/07/29 03:10:53;;;;;;;2.22;2.05;;;17.70;99.90;;;;;;4820353;29;20457;-81
2021/07/29 03:13:22;;;;;;;1.95;1.85;;;17.70;99.90;;;;;;4781324;29;20419;-81
2021/07/29 03:15:53;;;;;;;2.10;2.00;;;17.60;99.90;;;;;;4823948;29;20442;-80
2021/07/29 03:18:20;;;;;;;1.88;1.77;;;17.60;99.90;;;;;;4805674;29;20491;-79
2021/07/29 03:20:53;;;;;;;2.00;1.83;;;17.70;99.90;;;;;;4824440;29;20483;-81
2021/07/29 03:23:26;;;;;;;1.90;1.80;;;17.60;99.90;;;;;;4807502;29;20958;-81
2021/07/29 03:26:18;;;;;;;2.20;2.10;;;17.70;99.90;;;;;;4793469;29;20503;-81
2021/07/29 03:28:44;;;;;;;2.15;1.95;;;17.60;99.90;;;;;;4818200;29;20426;-81
2021/07/29 03:31:11;;;;;;;2.10;2.00;;;17.60;99.90;;;;;;4796881;29;20539;-79
2021/07/29 03:33:38;;;;;;;2.40;2.10;;;17.60;99.90;;;;;;4805988;29;20549;-79
2021/07/29 03:36:04;;;;;;;2.20;2.10;;;17.60;99.90;;;;;;4814766;29;20411;-80
2021/07/29 03:38:30;;;;;;;1.85;1.75;;;17.70;99.90;;;;;;4821957;29;20416;-80
2021/07/29 03:41:10;;;;;;;2.28;2.10;;;17.50;99.90;;;;;;4840304;29;20412;-79
2021/07/29 03:43:35;;;;;;;2.20;2.00;;;17.70;99.90;;;;;;4835323;29;20440;-81
2021/07/29 03:46:02;;;;;;;1.80;1.70;;;17.60;99.90;;;;;;4804263;29;20479;-79
2021/07/29 03:48:28;;;;;;;2.47;2.20;;;17.60;99.90;;;;;;4808206;29;20515;-79
2021/07/29 03:50:53;;;;;;;2.67;2.08;;;17.60;99.90;;;;;;4819072;29;20439;-79
2021/07/29 03:53:19;;;;;;;1.67;1.57;;;17.70;99.90;;;;;;4809488;29;20435;-80
2021/07/29 03:55:46;;;;;;;2.03;1.92;;;17.60;99.90;;;;;;4824885;29;20427;-79
2021/07/29 03:58:12;;;;;;;3.97;2.10;;;17.60;99.90;;;;;;4824816;29;20510;-80
2021/07/29 04:00:41;;;;;;;2.03;1.92;;;17.60;99.90;;;;;;4832739;29;20424;-79
2021/07/29 04:03:11;;;;;;;2.20;2.00;;;17.70;99.90;;;;;;4831264;29;21010;-80
2021/07/29 04:05:52;;;;;;;2.50;2.30;;;17.70;99.90;;;;;;4818477;29;20451;-80
2021/07/29 04:08:53;;;;;;;2.33;2.13;;;17.70;99.90;;;;;;4838972;29;20424;-79
2021/07/29 04:11:44;;;;;;;3.13;2.22;;;17.70;99.90;;;;;;4800366;29;20424;-79
2021/07/29 04:14:11;;;;;;;3.33;2.60;;;17.80;99.90;;;;;;4833251;29;20831;-79
2021/07/29 04:16:44;;;;;;;2.00;1.80;;;17.80;99.90;;;;;;4823785;29;20420;-79
2021/07/29 04:19:11;;;;;;;2.35;2.15;;;17.80;99.90;;;;;;4821566;29;20421;-79
2021/07/29 04:21:40;;;;;;;2.10;2.00;;;17.80;99.90;;;;;;4849157;29;20924;-78
2021/07/29 04:24:08;;;;;;;2.25;2.05;;;17.90;99.90;;;;;;4837035;29;20459;-79
2021/07/29 04:26:34;;;;;;;2.83;2.55;;;17.90;99.90;;;;;;4806482;29;20476;-79
2021/07/29 04:29:00;;;;;;;2.60;2.40;;;18.00;99.90;;;;;;4829870;29;20410;-79
2021/07/29 04:31:26;;;;;;;1.85;1.75;;;18.00;99.90;;;;;;4822260;29;20505;-78
2021/07/29 04:33:52;;;;;;;2.42;2.22;;;18.00;99.90;;;;;;4836888;29;20426;-79
2021/07/29 04:36:19;;;;;;;3.90;3.58;;;18.10;99.90;;;;;;4804941;29;20451;-79
2021/07/29 04:38:44;;;;;;;2.97;2.75;;;18.20;99.90;;;;;;4810554;29;20416;-80
2021/07/29 04:41:10;;;;;;;2.20;2.10;;;18.30;99.90;;;;;;4795362;29;20416;-80
2021/07/29 04:43:36;;;;;;;2.63;2.42;;;18.30;99.90;;;;;;4824124;29;20780;-79
2021/07/29 04:46:02;;;;;;;2.40;2.20;;;18.30;99.90;;;;;;4805259;29;20589;-82
2021/07/29 04:48:31;;;;;;;2.70;2.20;;;18.40;99.90;;;;;;4813333;29;20424;-81
2021/07/29 04:51:03;;;;;;;2.00;1.90;;;18.60;99.90;;;;;;4806201;29;20429;-80
2021/07/29 04:53:29;;;;;;;2.75;2.55;;;18.60;99.90;;;;;;4821772;29;20429;-81
2021/07/29 04:56:16;;;;;;;2.50;2.30;;;18.60;99.90;;;;;;4815732;29;20796;-81
2021/07/29 04:58:49;;;;;;;2.78;2.47;;;18.70;99.90;;;;;;4844642;29;20419;-81
2021/07/29 05:01:42;;;;;;;5.25;2.35;;;18.80;99.90;;;;;;4824375;29;20423;-80
2021/07/29 05:04:10;;;;;;;2.70;2.50;;;18.80;99.90;;;;;;4833852;29;20415;-80
2021/07/29 05:07:12;;;;;;;2.35;2.20;;;18.80;99.90;;;;;;4811392;29;20453;-81
2021/07/29 05:09:55;;;;;;;2.47;2.28;;;18.90;99.90;;;;;;4835491;29;20415;-80
2021/07/29 05:13:17;;;;;;;2.22;2.08;;;19.00;99.90;;;;;;4844310;29;20424;-81
2021/07/29 05:16:13;;;;;;;2.35;2.15;;;19.10;99.90;;;;;;4796097;29;20414;-80
2021/07/29 05:19:02;;;;;;;2.50;2.30;;;19.10;99.90;;;;;;4856657;29;20442;-80
2021/07/29 05:21:54;;;;;;;1.95;1.85;;;19.20;99.90;;;;;;4824360;29;20427;-81
2021/07/29 05:24:21;;;;;;;2.70;2.50;;;19.30;99.90;;;;;;4813047;29;20415;-81
2021/07/29 05:26:47;;;;;;;2.50;2.30;;;19.60;99.90;;;;;;4842501;29;20420;-81
2021/07/29 05:29:13;;;;;;;2.23;2.03;;;19.60;99.90;;;;;;4841154;29;20420;-79
2021/07/29 05:31:41;;;;;;;2.28;2.08;;;19.90;99.90;;;;;;4838135;29;20837;-80
2021/07/29 05:34:09;;;;;;;2.42;2.22;;;20.10;99.90;;;;;;4810602;29;22482;-79
2021/07/29 05:36:35;;;;;;;2.40;2.22;;;20.20;99.90;;;;;;4820106;29;20510;-79
2021/07/29 05:39:01;;;;;;;2.27;2.10;;;20.30;99.90;;;;;;4812886;29;20499;-80
2021/07/29 05:41:27;;;;;;;2.90;2.50;;;20.60;99.90;;;;;;4809384;29;21021;-79
2021/07/29 05:43:52;;;;;;;2.03;1.90;;;20.80;99.90;;;;;;4827070;29;20412;-79
2021/07/29 05:46:18;;;;;;;2.63;2.33;;;20.90;99.90;;;;;;4827004;29;21201;-80
2021/07/29 05:48:44;;;;;;;2.00;1.90;;;21.00;99.90;;;;;;4823668;29;20441;-80
2021/07/29 05:51:10;;;;;;;2.08;1.98;;;20.90;99.90;;;;;;4811125;29;20420;-80
2021/07/29 05:53:36;;;;;;;2.23;2.07;;;21.00;99.90;;;;;;4825374;29;20423;-81
2021/07/29 05:56:01;;;;;;;4.03;2.17;;;20.90;99.90;;;;;;4807272;29;20420;-81
2021/07/29 05:58:27;;;;;;;2.00;1.90;;;21.00;99.90;;;;;;4840313;29;20419;-80
2021/07/29 06:00:54;;;;;;;2.30;2.10;;;20.90;99.90;;;;;;4826197;29;20416;-81
2021/07/29 06:03:20;;;;;;;1.75;1.65;;;20.90;99.90;;;;;;4825809;29;20456;-82
2021/07/29 06:05:45;;;;;;;3.08;2.10;;;21.20;99.90;;;;;;4823956;29;20438;-80
2021/07/29 06:08:12;;;;;;;1.90;1.80;;;21.40;99.90;;;;;;4814316;29;20416;-80
2021/07/29 06:10:43;;;;;;;1.88;1.77;;;21.50;99.90;;;;;;4832213;29;20440;-80
2021/07/29 06:13:09;;;;;;;1.98;1.88;;;21.80;99.90;;;;;;4809288;29;20428;-81
2021/07/29 06:15:35;;;;;;;1.98;1.88;;;21.90;99.90;;;;;;4788963;29;20419;-81
2021/07/29 06:18:02;;;;;;;2.40;2.20;;;22.00;99.90;;;;;;4824639;29;20424;-80
2021/07/29 06:20:29;;;;;;;2.10;1.90;;;22.00;99.90;;;;;;4836520;29;20414;-81
2021/07/29 06:22:55;;;;;;;1.67;1.58;;;22.00;99.90;;;;;;4835461;29;20430;-80
2021/07/29 06:25:21;;;;;;;1.77;1.67;;;22.10;99.90;;;;;;4820115;29;20428;-80
2021/07/29 06:27:50;;;;;;;1.88;1.77;;;22.10;99.90;;;;;;4842867;29;20436;-80
2021/07/29 06:30:17;;;;;;;1.83;1.70;;;22.10;99.90;;;;;;4839627;29;20430;-80
2021/07/29 06:32:43;;;;;;;2.17;1.98;;;22.10;99.90;;;;;;4819002;29;20462;-81
2021/07/29 06:35:09;;;;;;;3.00;2.17;;;22.10;99.90;;;;;;4825469;29;20415;-80
2021/07/29 06:37:38;;;;;;;1.70;1.60;;;22.20;99.90;;;;;;4847271;29;20424;-80
2021/07/29 06:40:09;;;;;;;3.92;1.80;;;22.10;99.90;;;;;;4819196;29;20423;-81
2021/07/29 06:42:35;;;;;;;1.67;1.58;;;22.10;99.90;;;;;;4825857;29;20417;-81
2021/07/29 06:45:01;;;;;;;1.65;1.55;;;22.10;99.90;;;;;;4845841;29;20489;-82
2021/07/29 06:47:31;;;;;;;1.80;1.70;;;22.00;99.90;;;;;;4842858;29;20440;-80
2021/07/29 06:49:58;;;;;;;2.42;1.77;;;22.10;99.90;;;;;;4844541;29;20419;-82
2021/07/29 06:52:29;;;;;;;1.70;1.60;;;22.10;99.90;;;;;;4811788;29;20774;-81
2021/07/29 06:54:55;;;;;;;1.80;1.70;;;22.00;99.90;;;;;;4804724;29;20475;-81
2021/07/29 06:57:21;;;;;;;1.63;1.53;;;22.00;99.90;;;;;;4828501;29;20556;-80
2021/07/29 06:59:47;;;;;;;1.70;1.60;;;22.00;99.90;;;;;;4823144;29;20448;-81
2021/07/29 07:02:12;;;;;;;1.70;1.60;;;22.20;99.90;;;;;;4807258;29;20423;-80
2021/07/29 07:04:39;;;;;;;3.00;1.40;;;22.30;99.90;;;;;;4807577;29;20446;-82
2021/07/29 07:07:04;;;;;;;1.90;1.50;;;22.30;99.90;;;;;;4841139;29;21035;-81
2021/07/29 07:09:30;;;;;;;1.77;1.67;;;22.50;99.90;;;;;;4825947;29;20431;-81
2021/07/29 07:11:56;;;;;;;1.77;1.67;;;22.60;99.90;;;;;;4825998;29;20552;-81
2021/07/29 07:14:22;;;;;;;1.73;1.63;;;22.80;99.90;;;;;;4807587;29;20482;-80
2021/07/29 07:16:48;;;;;;;1.70;1.42;;;22.90;99.90;;;;;;4816245;29;21058;-80
2021/07/29 07:19:13;;;;;;;3.00;1.50;;;22.90;99.90;;;;;;4826826;29;20416;-80
2021/07/29 07:21:39;;;;;;;1.70;1.60;;;23.00;99.90;;;;;;4825862;29;20420;-80
2021/07/29 07:24:06;;;;;;;1.33;1.33;;;23.20;99.90;;;;;;4796495;29;20420;-80
2021/07/29 07:26:32;;;;;;;1.55;1.45;;;23.20;99.90;;;;;;4823479;29;20459;-80
2021/07/29 07:28:58;;;;;;;1.60;1.50;;;23.40;99.90;;;;;;4810118;29;20499;-80
2021/07/29 07:31:24;;;;;;;1.60;1.50;;;23.50;99.90;;;;;;4819850;29;20409;-80
2021/07/29 07:33:50;;;;;;;1.77;1.67;;;23.70;99.90;;;;;;4824880;29;20413;-80
2021/07/29 07:36:20;;;;;;;1.70;1.60;;;23.60;99.90;;;;;;4822442;29;20425;-80
2021/07/29 07:38:49;;;;;;;2.58;1.70;;;23.50;99.90;;;;;;4801160;29;20444;-80
2021/07/29 07:41:15;;;;;;;1.77;1.67;;;23.50;99.90;;;;;;4812048;29;20408;-80
2021/07/29 07:43:41;;;;;;;1.60;1.50;;;23.80;99.90;;;;;;4822900;29;20425;-80
2021/07/29 07:46:07;;;;;;;2.72;1.80;;;23.90;99.90;;;;;;4821976;29;20855;-80
2021/07/29 07:48:33;;;;;;;1.50;1.40;;;24.00;99.90;;;;;;4842144;29;20408;-79
2021/07/29 07:51:02;;;;;;;2.00;1.80;;;24.10;99.90;;;;;;4808395;29;20539;-80
2021/07/29 07:53:29;;;;;;;1.53;1.43;;;24.30;99.90;;;;;;4791802;29;20504;-80
2021/07/29 07:55:55;;;;;;;1.45;1.35;;;24.40;99.90;;;;;;4810809;29;20502;-80
2021/07/29 07:58:21;;;;;;;1.45;1.40;;;24.50;99.90;;;;;;4811306;29;20430;-80
2021/07/29 08:00:49;;;;;;;1.90;1.70;;;24.90;99.90;;;;;;4808756;29;20426;-80
2021/07/29 08:03:38;;;;;;;1.40;1.30;;;25.10;99.90;;;;;;4814504;29;20416;-80
2021/07/29 08:06:22;;;;;;;1.37;1.27;;;25.30;99.90;;;;;;4825874;29;20425;-80
2021/07/29 08:08:49;;;;;;;1.80;1.60;;;25.30;99.90;;;;;;4808658;29;20431;-80
2021/07/29 08:11:15;;;;;;;1.48;1.38;;;25.20;99.90;;;;;;4822947;29;20671;-80
2021/07/29 08:13:41;;;;;;;1.30;1.25;;;25.00;99.90;;;;;;4828849;29;20420;-80
2021/07/29 08:16:07;;;;;;;1.65;1.55;;;24.80;99.90;;;;;;4826442;29;20420;-80
2021/07/29 08:18:34;;;;;;;1.95;1.40;;;24.60;99.90;;;;;;4808885;29;20439;-80
2021/07/29 08:20:59;;;;;;;1.50;1.40;;;24.50;99.90;;;;;;4824894;29;20978;-80
2021/07/29 08:23:25;;;;;;;1.53;1.43;;;24.40;99.90;;;;;;4809184;29;20420;-80
2021/07/29 08:25:51;;;;;;;1.35;1.25;;;24.30;99.90;;;;;;4832139;29;20428;-80
2021/07/29 08:28:17;;;;;;;1.47;1.37;;;24.40;99.90;;;;;;4828520;29;20423;-80
2021/07/29 08:30:42;;;;;;;1.30;1.20;;;24.60;99.90;;;;;;4816861;29;20444;-80
2021/07/29 08:33:12;;;;;;;1.48;1.33;;;24.90;99.90;;;;;;4811193;29;20450;-80
2021/07/29 08:35:43;;;;;;;1.02;1.02;;;25.10;99.90;;;;;;4818631;29;20435;-80
2021/07/29 08:38:09;;;;;;;1.10;1.10;;;25.10;99.90;;;;;;4827059;29;20420;-80
2021/07/29 08:40:35;;;;;;;1.60;1.35;;;25.00;99.90;;;;;;4835496;29;20430;-79
2021/07/29 08:43:02;;;;;;;1.30;1.20;;;25.00;99.90;;;;;;4824644;29;20422;-80
2021/07/29 08:45:42;;;;;;;1.20;1.10;;;24.80;99.90;;;;;;4818133;29;20434;-81
2021/07/29 08:48:10;;;;;;;1.40;1.30;;;24.60;99.90;;;;;;4841098;29;20433;-80
2021/07/29 08:50:36;;;;;;;3.50;1.58;;;24.80;99.90;;;;;;4817277;29;20416;-80
2021/07/29 08:53:05;;;;;;;0.95;0.95;;;25.00;99.90;;;;;;4827134;29;20465;-80
2021/07/29 08:55:36;;;;;;;1.13;1.10;;;25.30;99.90;;;;;;4838747;29;20479;-80
2021/07/29 08:58:06;;;;;;;1.15;1.08;;;25.60;99.90;;;;;;4807647;29;20410;-80
2021/07/29 09:00:37;;;;;;;2.00;1.50;;;25.80;99.90;;;;;;4787542;29;21426;-79
2021/07/29 09:03:26;;;;;;;1.13;1.02;;;25.80;99.90;;;;;;4810113;29;20408;-80
2021/07/29 09:06:06;;;;;;;1.23;1.10;;;26.10;99.90;;;;;;4788781;29;20442;-80
2021/07/29 09:08:55;;;;;;;3.03;1.20;;;26.30;99.90;;;;;;4805073;29;20432;-81
2021/07/29 09:12:03;;;;;;;1.03;1.03;;;26.30;99.90;;;;;;4805202;29;20457;-80
2021/07/29 09:15:08;;;;;;;1.25;1.10;;;26.70;99.90;;;;;;4849694;29;20408;-81
2021/07/29 09:20:42;;;;;;;1.17;1.08;;;26.90;99.90;;;;;;4844259;29;20472;-80
2021/07/29 09:23:17;;;;;;;1.35;1.25;;;27.20;99.90;;;;;;4821592;29;20514;-81
2021/07/29 09:26:09;;;;;;;1.58;1.40;;;27.50;99.90;;;;;;4815558;29;20440;-80
2021/07/29 09:29:22;;;;;;;1.33;1.23;;;27.80;99.90;;;;;;4824883;29;20411;-81
2021/07/29 09:32:41;;;;;;;1.42;1.33;;;27.60;99.90;;;;;;4784645;29;20449;-81
2021/07/29 09:35:52;;;;;;;1.23;1.13;;;27.20;99.90;;;;;;4762396;29;20422;-81
2021/07/29 09:38:35;;;;;;;0.85;0.85;;;27.00;99.90;;;;;;4794039;29;20442;-80
2021/07/29 09:41:44;;;;;;;1.17;1.15;;;27.30;99.90;;;;;;4803686;29;20473;-81
2021/07/29 09:44:47;;;;;;;1.33;1.23;;;27.60;99.90;;;;;;4821788;29;20406;-80
2021/07/29 09:47:26;;;;;;;1.00;1.00;;;28.10;99.90;;;;;;4794705;29;21481;-80
2021/07/29 09:50:12;;;;;;;0.93;0.93;;;28.40;99.90;;;;;;4734617;29;20442;-82
2021/07/29 09:56:33;;;;;;;1.40;1.30;;;28.10;99.90;;;;;;4778544;29;20425;-81
2021/07/29 09:59:56;;;;;;;1.08;1.08;;;28.30;99.50;;;;;;4742721;29;20451;-82
2021/07/29 10:03:08;;;;;;;1.27;1.25;;;28.80;99.80;;;;;;4787099;29;20465;-81
2021/07/29 10:06:22;;;;;;;1.27;1.17;;;29.30;99.90;;;;;;4800374;29;20451;-82
2021/07/29 10:09:27;;;;;;;1.02;1.02;;;29.00;94.60;;;;;;4808036;29;20438;-82
2021/07/29 10:12:09;;;;;;;1.20;1.20;;;28.60;98.20;;;;;;4794666;29;21019;-81
2021/07/29 10:15:18;;;;;;;1.30;1.20;;;28.60;98.90;;;;;;4833856;29;20431;-81
2021/07/29 10:22:07;;;;;;;1.70;1.50;;;28.50;98.70;;;;;;4856494;29;20717;-81
2021/07/29 10:24:58;;;;;;;1.50;1.40;;;28.00;95.70;;;;;;4836743;29;20536;-80
2021/07/29 10:27:36;;;;;;;1.83;1.30;;;28.60;98.30;;;;;;4807893;29;20878;-81
2021/07/29 10:31:12;;;;;;;1.20;1.20;;;29.00;97.10;;;;;;4837470;29;20408;-81
2021/07/29 10:34:28;;;;;;;1.25;1.20;;;28.70;97.30;;;;;;4816480;29;20427;-81
2021/07/29 10:37:48;;;;;;;1.77;1.67;;;28.60;97.30;;;;;;4811347;29;20449;-80
2021/07/29 10:40:43;;;;;;;1.70;1.60;;;28.50;97.80;;;;;;4804380;29;20406;-81
2021/07/29 10:43:24;;;;;;;1.40;1.30;;;28.40;97.50;;;;;;4793857;29;20418;-81
2021/07/29 10:46:06;;;;;;;1.10;1.10;;;28.20;96.00;;;;;;4782321;29;20431;-80
2021/07/29 10:49:21;;;;;;;1.40;1.30;;;27.80;96.60;;;;;;4813245;29;20427;-80
2021/07/29 10:52:17;;;;;;;1.23;1.20;;;27.20;96.30;;;;;;4823985;29;20774;-81
2021/07/29 10:58:17;;;;;;;5.22;1.52;;;27.10;98.20;;;;;;4826669;29;20416;-80
2021/07/29 11:01:03;;;;;;;1.52;1.42;;;27.80;99.40;;;;;;4818155;29;20447;-81
2021/07/29 11:03:38;;;;;;;1.38;1.30;;;28.00;97.30;;;;;;4827828;29;20899;-81
2021/07/29 11:06:16;;;;;;;1.50;1.40;;;27.70;97.80;;;;;;4788402;29;20497;-80
2021/07/29 11:08:56;;;;;;;1.50;1.40;;;27.60;96.10;;;;;;4787929;29;20412;-81
2021/07/29 11:11:49;;;;;;;1.40;1.30;;;27.40;97.50;;;;;;4799107;29;20426;-80
2021/07/29 11:14:47;;;;;;;2.20;1.70;;;27.40;96.60;;;;;;4806155;29;20417;-81
2021/07/29 11:17:20;;;;;;;1.45;1.35;;;27.40;94.70;;;;;;4765506;29;20432;-80
2021/07/29 11:20:51;;;;;;;1.60;1.50;;;27.30;98.20;;;;;;4759088;29;20561;-80
2021/07/29 11:24:09;;;;;;;1.40;1.30;;;27.40;98.20;;;;;;4785509;29;20437;-80
2021/07/29 11:27:57;;;;;;;1.30;1.20;;;27.60;97.70;;;;;;4806381;29;20515;-82
2021/07/29 11:30:49;;;;;;;2.17;1.48;;;27.40;97.10;;;;;;4783256;29;20422;-80
2021/07/29 11:34:11;;;;;;;1.20;1.20;;;27.50;96.90;;;;;;4779937;29;20454;-81
2021/07/29 11:37:16;;;;;;;1.95;1.17;;;27.20;95.90;;;;;;4801586;29;20419;-80
2021/07/29 11:41:26;;;;;;;1.45;1.35;;;27.20;98.80;;;;;;4811108;29;20420;-80
2021/07/29 11:45:04;;;;;;;1.50;1.40;;;27.20;96.80;;;;;;4793146;29;20485;-81
2021/07/29 11:48:28;;;;;;;1.43;1.33;;;27.00;95.90;;;;;;4796430;29;20424;-81
2021/07/29 11:51:38;;;;;;;3.38;1.58;;;26.80;93.30;;;;;;4799542;29;20414;-81
2021/07/29 11:54:45;;;;;;;1.37;1.27;;;26.10;93.60;;;;;;4797770;29;20867;-81
2021/07/29 11:57:41;;;;;;;2.50;1.38;;;26.60;96.70;;;;;;4804661;29;20428;-81
2021/07/29 12:01:16;;;;;;;2.72;1.70;;;27.50;96.90;;;;;;4797799;29;20426;-82
2021/07/29 12:03:59;;;;;;;1.50;1.40;;;28.10;95.80;;;;;;4807985;29;20495;-80
2021/07/29 12:06:50;;;;;;;1.63;1.52;;;28.10;94.00;;;;;;4772684;29;20439;-80
2021/07/29 12:09:32;;;;;;;1.70;1.60;;;28.10;94.50;;;;;;4807058;29;20422;-81
2021/07/29 12:12:12;;;;;;;1.30;1.20;;;28.50;94.30;;;;;;4805049;29;20500;-82
2021/07/29 12:14:57;;;;;;;2.50;1.48;;;28.20;94.30;;;;;;4787045;29;20434;-81
2021/07/29 12:18:28;;;;;;;1.50;1.40;;;27.80;93.40;;;;;;4780043;29;20435;-80
2021/07/29 12:21:44;;;;;;;1.48;1.38;;;27.30;93.90;;;;;;4828249;29;20453;-81
2021/07/29 12:25:02;;;;;;;1.60;1.50;;;27.30;95.10;;;;;;4824527;29;20432;-80
2021/07/29 12:28:42;;;;;;;1.27;1.17;;;27.80;95.60;;;;;;4832210;29;20447;-81
2021/07/29 12:31:55;;;;;;;1.50;1.40;;;28.20;95.30;;;;;;4782735;29;20428;-81
2021/07/29 12:35:40;;;;;;;1.50;1.40;;;28.30;93.80;;;;;;4821220;29;20435;-81
2021/07/29 12:39:38;;;;;;;1.48;1.38;;;28.00;94.60;;;;;;4828356;29;20430;-80
2021/07/29 12:43:39;;;;;;;1.58;1.40;;;27.30;93.30;;;;;;4841489;29;20502;-81
2021/07/29 12:46:29;;;;;;;6.43;1.48;;;27.10;94.40;;;;;;4795811;29;20850;-81
2021/07/29 12:49:23;;;;;;;1.40;1.30;;;27.60;94.00;;;;;;4809643;29;20415;-80
2021/07/29 12:52:05;;;;;;;1.30;1.20;;;28.20;94.50;;;;;;4821220;29;20427;-80
2021/07/29 12:55:13;;;;;;;1.83;1.60;;;28.50;94.70;;;;;;4796244;29;20431;-81
2021/07/29 12:58:02;;;;;;;1.23;1.20;;;28.60;94.80;;;;;;4821669;29;20412;-81
2021/07/29 13:01:04;;;;;;;1.07;1.07;;;28.40;94.30;;;;;;4790556;29;20420;-80
2021/07/29 13:03:53;;;;;;;1.60;1.40;;;28.50;93.00;;;;;;4843368;29;20453;-80
2021/07/29 13:06:39;;;;;;;4.10;1.38;;;27.90;91.00;;;;;;4807123;29;20848;-81
2021/07/29 13:09:40;;;;;;;1.40;1.30;;;27.70;89.70;;;;;;4836559;29;20443;-80
2021/07/29 13:12:14;;;;;;;1.85;1.30;;;28.10;91.90;;;;;;4830905;29;20416;-81
2021/07/29 13:15:00;;;;;;;1.35;1.30;;;28.70;88.40;;;;;;4812084;29;20427;-80
2021/07/29 13:18:16;;;;;;;1.70;1.60;;;28.70;86.20;;;;;;4823063;29;20439;-81
2021/07/29 13:20:52;;;;;;;1.63;1.52;;;29.00;88.30;;;;;;4825494;29;20419;-80
2021/07/29 13:23:26;;;;;;;1.20;1.20;;;29.00;88.60;;;;;;4827001;29;20488;-80
2021/07/29 13:26:33;;;;;;;1.30;1.30;;;29.20;86.40;;;;;;4819977;29;20462;-81
2021/07/29 13:29:31;;;;;;;1.30;1.20;;;28.90;88.40;;;;;;4846394;29;20426;-81
2021/07/29 13:32:29;;;;;;;1.40;1.30;;;28.50;86.10;;;;;;4855642;29;20456;-81
2021/07/29 13:35:15;;;;;;;1.38;1.23;;;28.10;88.10;;;;;;4845755;29;20505;-81
2021/07/29 13:39:00;;;;;;;1.40;1.25;;;27.90;90.00;;;;;;4812239;29;20491;-80
2021/07/29 13:41:43;;;;;;;1.10;1.10;;;28.70;87.30;;;;;;4796869;29;20421;-81
2021/07/29 13:48:35;;;;;;;1.98;1.50;;;28.50;87.10;;;;;;4729109;29;20404;-80
2021/07/29 13:51:17;;;;;;;1.33;1.23;;;28.00;86.00;;;;;;4852575;29;20415;-79
2021/07/29 13:53:42;;;;;;;1.60;1.50;;;27.60;87.00;;;;;;4819995;29;20432;-79
2021/07/29 13:56:59;;;;;;;1.55;1.45;;;27.40;88.50;;;;;;4781600;29;20408;-82
2021/07/29 13:59:40;;;;;;;1.10;1.10;;;27.50;88.50;;;;;;4797854;29;20412;-80
2021/07/29 14:02:50;;;;;;;1.40;1.30;;;28.30;86.70;;;;;;4823115;29;20459;-80
2021/07/29 14:06:06;;;;;;;3.00;1.40;;;29.00;82.10;;;;;;4792212;29;20474;-80
2021/07/29 14:08:45;;;;;;;1.30;1.20;;;29.60;82.90;;;;;;4815335;29;20464;-81